Time;durP1;ratioP1;P1;durP2;ratioP2;P2;SDS_P1;SDS_P2;PMS_P1;PMS_P2;Temp;Humidity;BMP_temperature;BMP_pressure;BME280_temperature;BME280_humidity;BME280_pressure;Samples;Min_cycle;Max_cycle;Signal;HPM_P1;HPM_P2
2023/08/30 00:00:00;;;;;;;;;;;;;;;;;;1046565;28;3084;-49
2023/08/30 00:00:30;;;;;;;;;;;;;;;;;;1040604;28;4071;-57
2023/08/30 00:01:21;;;;;;;;;;;;;;;;;;1036677;28;3656;-55
2023/08/30 00:01:51;;;;;;;;;;;;;;;;;;1035372;28;3778;-52
2023/08/30 00:02:21;;;;;;;;;;;;;;;;;;1034498;28;3646;-54
2023/08/30 00:02:51;;;;;;;;;;;;;;;;;;1040269;28;3694;-50
2023/08/30 00:03:22;;;;;;;;;;;;;;;;;;1042189;28;3391;-55
2023/08/30 00:03:52;;;;;;;;;;;;;;;;;;1039423;28;3785;-54
2023/08/30 00:04:22;;;;;;;;;;;;;;;;;;1041844;28;3794;-52
2023/08/30 00:04:57;;;;;;;;;;;;;;;;;;1039187;28;3239;-58
2023/08/30 00:05:27;;;;;;;;;;;;;;;;;;1038595;28;3942;-54
2023/08/30 00:06:02;;;;;;;;;;;;;;;;;;1038100;28;3526;-52
2023/08/30 00:06:32;;;;;;;;;;;;;;;;;;1040397;28;4135;-55
2023/08/30 00:07:02;;;;;;;;;;;;;;;;;;1037639;28;5605;-54
2023/08/30 00:07:33;;;;;;;;;;;;;;;;;;1042431;28;4034;-53
2023/08/30 00:08:03;;;;;;;;;;;;;;;;;;1039616;28;3225;-53
2023/08/30 00:08:34;;;;;;;;;;;;;;;;;;1040736;28;3868;-51
2023/08/30 00:09:04;;;;;;;;;;;;;;;;;;1040540;28;3276;-52
2023/08/30 00:09:35;;;;;;;;;;;;;;;;;;1040826;28;4031;-56
2023/08/30 00:10:07;;;;;;;;;;;;;;;;;;1039565;28;3184;-55
2023/08/30 00:10:38;;;;;;;;;;;;;;;;;;1040957;28;4058;-57
2023/08/30 00:11:08;;;;;;;;;;;;;;;;;;1040295;28;3342;-56
2023/08/30 00:11:39;;;;;;;;;;;;;;;;;;1036683;28;4016;-55
2023/08/30 00:12:09;;;;;;;;;;;;;;;;;;1034501;28;3634;-52
2023/08/30 00:12:39;;;;;;;;;;;;;;;;;;1035937;28;3900;-52
2023/08/30 00:13:09;;;;;;;;;;;;;;;;;;1036047;28;3660;-51
2023/08/30 00:13:40;;;;;;;;;;;;;;;;;;1039080;28;4411;-60
2023/08/30 00:14:11;;;;;;;;;;;;;;;;;;1039554;28;3171;-55
2023/08/30 00:14:41;;;;;;;;;;;;;;;;;;1039182;28;3906;-52
2023/08/30 00:15:11;;;;;;;;;;;;;;;;;;1043431;28;3290;-53
2023/08/30 00:15:42;;;;;;;;;;;;;;;;;;1044076;28;4050;-58
2023/08/30 00:16:12;;;;;;;;;;;;;;;;;;1047289;28;2943;-56
2023/08/30 00:16:43;;;;;;;;;;;;;;;;;;1045487;28;3940;-56
2023/08/30 00:17:13;;;;;;;;;;;;;;;;;;1039627;28;3125;-55
2023/08/30 00:17:44;;;;;;;;;;;;;;;;;;1039224;28;3745;-55
2023/08/30 00:18:14;;;;;;;;;;;;;;;;;;1041285;28;3288;-52
2023/08/30 00:18:45;;;;;;;;;;;;;;;;;;1040869;28;3834;-55
2023/08/30 00:19:15;;;;;;;;;;;;;;;;;;1042521;28;3297;-51
2023/08/30 00:19:46;;;;;;;;;;;;;;;;;;1041958;28;3851;-53
2023/08/30 00:20:16;;;;;;;;;;;;;;;;;;1040982;28;3526;-53
2023/08/30 00:20:46;;;;;;;;;;;;;;;;;;1038970;28;4081;-56
2023/08/30 00:21:16;;;;;;;;;;;;;;;;;;1039213;28;3641;-56
2023/08/30 00:21:47;;;;;;;;;;;;;;;;;;1041094;28;3913;-56
2023/08/30 00:22:17;;;;;;;;;;;;;;;;;;1039273;28;3305;-51
2023/08/30 00:22:50;;;;;;;;;;;;;;;;;;1039825;28;4302;-54
2023/08/30 00:23:20;;;;;;;;;;;;;;;;;;1034318;28;3456;-55
2023/08/30 00:23:51;;;;;;;;;;;;;;;;;;1036571;28;3876;-55
2023/08/30 00:24:21;;;;;;;;;;;;;;;;;;1037947;28;3353;-54
2023/08/30 00:24:52;;;;;;;;;;;;;;;;;;1036276;28;3956;-51
2023/08/30 00:25:22;;;;;;;;;;;;;;;;;;1040768;28;3382;-52
2023/08/30 00:25:52;;;;;;;;;;;;;;;;;;1041838;28;3911;-50
2023/08/30 00:26:22;;;;;;;;;;;;;;;;;;1042175;28;3949;-52
2023/08/30 00:26:53;;;;;;;;;;;;;;;;;;1040138;28;3127;-53
2023/08/30 00:27:23;;;;;;;;;;;;;;;;;;1040787;28;3896;-53
2023/08/30 00:27:53;;;;;;;;;;;;;;;;;;1042312;28;3234;-56
2023/08/30 00:28:23;;;;;;;;;;;;;;;;;;1043044;28;4165;-51
2023/08/30 00:28:54;;;;;;;;;;;;;;;;;;1042575;28;1860;-53
2023/08/30 00:29:24;;;;;;;;;;;;;;;;;;1042630;28;4039;-57
2023/08/30 00:29:54;;;;;;;;;;;;;;;;;;1042028;28;1897;-53
2023/08/30 00:30:24;;;;;;;;;;;;;;;;;;1041473;28;3963;-53
2023/08/30 00:30:55;;;;;;;;;;;;;;;;;;1045151;28;3161;-56
2023/08/30 00:31:25;;;;;;;;;;;;;;;;;;1045969;28;4045;-59
2023/08/30 00:31:56;;;;;;;;;;;;;;;;;;1044294;28;3334;-58
2023/08/30 00:32:26;;;;;;;;;;;;;;;;;;1045499;28;3911;-58
2023/08/30 00:32:56;;;;;;;;;;;;;;;;;;1043006;28;1861;-53
2023/08/30 00:33:27;;;;;;;;;;;;;;;;;;1041553;28;4085;-53
2023/08/30 00:33:57;;;;;;;;;;;;;;;;;;1042651;28;3085;-56
2023/08/30 00:34:27;;;;;;;;;;;;;;;;;;1040743;28;3993;-56
2023/08/30 00:34:57;;;;;;;;;;;;;;;;;;1041754;28;3203;-55
2023/08/30 00:35:28;;;;;;;;;;;;;;;;;;1041910;28;3957;-56
2023/08/30 00:35:58;;;;;;;;;;;;;;;;;;1041011;28;3238;-51
2023/08/30 00:36:29;;;;;;;;;;;;;;;;;;1042082;28;3870;-55
2023/08/30 00:36:59;;;;;;;;;;;;;;;;;;1043847;28;1705;-57
2023/08/30 00:37:29;;;;;;;;;;;;;;;;;;1040950;28;3960;-52
2023/08/30 00:37:59;;;;;;;;;;;;;;;;;;1041723;28;2963;-56
2023/08/30 00:38:30;;;;;;;;;;;;;;;;;;1040978;28;3811;-51
2023/08/30 00:39:00;;;;;;;;;;;;;;;;;;1042750;28;2267;-51
2023/08/30 00:39:30;;;;;;;;;;;;;;;;;;1042312;28;4320;-53
2023/08/30 00:40:01;;;;;;;;;;;;;;;;;;1041039;28;3107;-51
2023/08/30 00:40:37;;;;;;;;;;;;;;;;;;1039023;28;3983;-54
2023/08/30 00:41:07;;;;;;;;;;;;;;;;;;1039873;28;3280;-56
2023/08/30 00:41:38;;;;;;;;;;;;;;;;;;1040135;28;4064;-54
2023/08/30 00:42:09;;;;;;;;;;;;;;;;;;1041904;28;3627;-51
2023/08/30 00:42:40;;;;;;;;;;;;;;;;;;1039238;28;3931;-50
2023/08/30 00:43:11;;;;;;;;;;;;;;;;;;1040066;28;3485;-53
2023/08/30 00:43:41;;;;;;;;;;;;;;;;;;1040028;28;3870;-55
2023/08/30 00:44:11;;;;;;;;;;;;;;;;;;1041823;28;3242;-56
2023/08/30 00:44:41;;;;;;;;;;;;;;;;;;1043233;28;4028;-56
2023/08/30 00:45:12;;;;;;;;;;;;;;;;;;1040582;28;3183;-52
2023/08/30 00:45:42;;;;;;;;;;;;;;;;;;1043041;28;4303;-51
2023/08/30 00:46:13;;;;;;;;;;;;;;;;;;1042504;28;3173;-58
2023/08/30 00:46:43;;;;;;;;;;;;;;;;;;1041647;28;3770;-53
2023/08/30 00:47:13;;;;;;;;;;;;;;;;;;1042971;28;2429;-50
2023/08/30 00:47:44;;;;;;;;;;;;;;;;;;1047156;28;4028;-52
2023/08/30 00:48:15;;;;;;;;;;;;;;;;;;1046051;28;3398;-55
2023/08/30 00:48:46;;;;;;;;;;;;;;;;;;1046822;28;3844;-52
2023/08/30 00:49:16;;;;;;;;;;;;;;;;;;1043309;28;3102;-56
2023/08/30 00:49:47;;;;;;;;;;;;;;;;;;1037930;28;4211;-53
2023/08/30 00:50:17;;;;;;;;;;;;;;;;;;1038000;28;3362;-48
2023/08/30 00:50:47;;;;;;;;;;;;;;;;;;1038560;28;4024;-53
2023/08/30 00:51:18;;;;;;;;;;;;;;;;;;1038030;28;2845;-55
2023/08/30 00:51:49;;;;;;;;;;;;;;;;;;1039437;28;3937;-55
2023/08/30 00:52:19;;;;;;;;;;;;;;;;;;1040026;28;1995;-50
2023/08/30 00:52:49;;;;;;;;;;;;;;;;;;1041205;28;4438;-54
2023/08/30 00:53:20;;;;;;;;;;;;;;;;;;1042781;28;3083;-54
2023/08/30 00:53:50;;;;;;;;;;;;;;;;;;1041655;28;3758;-55
2023/08/30 00:54:21;;;;;;;;;;;;;;;;;;1041542;28;3111;-54
2023/08/30 00:54:51;;;;;;;;;;;;;;;;;;1041159;28;4147;-51
2023/08/30 00:55:21;;;;;;;;;;;;;;;;;;1042765;28;2933;-54
2023/08/30 00:55:52;;;;;;;;;;;;;;;;;;1041729;28;3941;-53
2023/08/30 00:56:22;;;;;;;;;;;;;;;;;;1042274;28;3070;-57
2023/08/30 00:56:54;;;;;;;;;;;;;;;;;;1043299;28;3934;-52
2023/08/30 00:57:24;;;;;;;;;;;;;;;;;;1042903;28;4426;-54
2023/08/30 00:57:54;;;;;;;;;;;;;;;;;;1042430;28;3362;-56
2023/08/30 00:58:26;;;;;;;;;;;;;;;;;;1041804;28;4210;-55
2023/08/30 00:58:56;;;;;;;;;;;;;;;;;;1043053;28;3132;-51
2023/08/30 00:59:27;;;;;;;;;;;;;;;;;;1042847;28;4442;-50
2023/08/30 00:59:57;;;;;;;;;;;;;;;;;;1044356;28;1762;-52
2023/08/30 01:00:29;;;;;;;;;;;;;;;;;;1039216;28;4068;-54
2023/08/30 01:00:59;;;;;;;;;;;;;;;;;;1044225;28;1461;-53
2023/08/30 01:01:29;;;;;;;;;;;;;;;;;;1043108;28;4431;-57
2023/08/30 01:02:03;;;;;;;;;;;;;;;;;;1043423;28;3290;-54
2023/08/30 01:02:33;;;;;;;;;;;;;;;;;;1042057;28;4006;-53
2023/08/30 01:03:05;;;;;;;;;;;;;;;;;;1042092;28;3326;-58
2023/08/30 01:03:37;;;;;;;;;;;;;;;;;;1041748;28;3794;-48
2023/08/30 01:04:07;;;;;;;;;;;;;;;;;;1042162;28;3172;-55
2023/08/30 01:04:38;;;;;;;;;;;;;;;;;;1042488;28;4278;-53
2023/08/30 01:05:08;;;;;;;;;;;;;;;;;;1041741;28;3441;-58
2023/08/30 01:05:39;;;;;;;;;;;;;;;;;;1043356;28;3877;-54
2023/08/30 01:06:09;;;;;;;;;;;;;;;;;;1043245;28;1603;-55
2023/08/30 01:06:39;;;;;;;;;;;;;;;;;;1037411;28;3956;-55
2023/08/30 01:07:09;;;;;;;;;;;;;;;;;;1038205;28;3465;-55
2023/08/30 01:07:40;;;;;;;;;;;;;;;;;;1039042;28;4067;-54
2023/08/30 01:08:11;;;;;;;;;;;;;;;;;;1038924;28;3333;-58
2023/08/30 01:08:42;;;;;;;;;;;;;;;;;;1043341;28;4315;-52
2023/08/30 01:09:13;;;;;;;;;;;;;;;;;;1043043;28;1874;-54
2023/08/30 01:09:43;;;;;;;;;;;;;;;;;;1043760;28;3912;-51
2023/08/30 01:10:13;;;;;;;;;;;;;;;;;;1043800;28;1911;-55
2023/08/30 01:10:52;;;;;;;;;;;;;;;;;;1041005;28;3787;-56
2023/08/30 01:11:26;;;;;;;;;;;;;;;;;;1039923;28;4063;-57
2023/08/30 01:12:06;;;;;;;;;;;;;;;;;;1041638;28;3290;-55
2023/08/30 01:12:39;;;;;;;;;;;;;;;;;;1040168;28;4101;-57
2023/08/30 01:13:12;;;;;;;;;;;;;;;;;;1042399;28;3330;-55
2023/08/30 01:13:47;;;;;;;;;;;;;;;;;;1042382;28;3809;-51
2023/08/30 01:14:20;;;;;;;;;;;;;;;;;;1043026;28;5426;-53
2023/08/30 01:14:53;;;;;;;;;;;;;;;;;;1040662;28;4164;-49
2023/08/30 01:15:24;;;;;;;;;;;;;;;;;;1042480;28;4667;-52
2023/08/30 01:15:55;;;;;;;;;;;;;;;;;;1043721;28;1672;-57
2023/08/30 01:16:25;;;;;;;;;;;;;;;;;;1042961;28;4030;-54
2023/08/30 01:16:57;;;;;;;;;;;;;;;;;;1043399;28;1762;-59
2023/08/30 01:17:27;;;;;;;;;;;;;;;;;;1043918;28;3862;-54
2023/08/30 01:17:58;;;;;;;;;;;;;;;;;;1046112;28;3159;-52
2023/08/30 01:18:32;;;;;;;;;;;;;;;;;;1046340;28;5432;-51
2023/08/30 01:19:18;;;;;;;;;;;;;;;;;;1046370;28;1771;-52
2023/08/30 01:19:57;;;;;;;;;;;;;;;;;;1043194;28;4192;-52
2023/08/30 01:20:28;;;;;;;;;;;;;;;;;;1043105;28;4509;-55
2023/08/30 01:21:01;;;;;;;;;;;;;;;;;;1041809;28;3365;-55
2023/08/30 01:21:34;;;;;;;;;;;;;;;;;;1042760;28;4051;-54
2023/08/30 01:22:16;;;;;;;;;;;;;;;;;;1041789;28;2744;-59
2023/08/30 01:23:22;;;;;;;;;;;;;;;;;;1039978;28;3935;-53
2023/08/30 01:23:58;;;;;;;;;;;;;;;;;;1038433;28;3861;-54
2023/08/30 01:24:33;;;;;;;;;;;;;;;;;;1037364;28;4163;-56
2023/08/30 01:25:09;;;;;;;;;;;;;;;;;;1037057;28;3237;-51
2023/08/30 01:25:42;;;;;;;;;;;;;;;;;;1037752;28;4042;-56
2023/08/30 01:26:15;;;;;;;;;;;;;;;;;;1038558;28;3413;-54
2023/08/30 01:26:58;;;;;;;;;;;;;;;;;;1038925;28;3733;-53
2023/08/30 01:27:31;;;;;;;;;;;;;;;;;;1038342;28;4075;-52
2023/08/30 01:28:04;;;;;;;;;;;;;;;;;;1032526;28;3242;-55
2023/08/30 01:28:35;;;;;;;;;;;;;;;;;;1034540;28;4085;-49
2023/08/30 01:29:05;;;;;;;;;;;;;;;;;;1035636;28;3537;-49
2023/08/30 01:29:37;;;;;;;;;;;;;;;;;;1038436;28;4094;-57
2023/08/30 01:30:08;;;;;;;;;;;;;;;;;;1041854;28;3401;-52
2023/08/30 01:30:40;;;;;;;;;;;;;;;;;;1040263;28;4045;-56
2023/08/30 01:31:11;;;;;;;;;;;;;;;;;;1042232;28;3707;-54
2023/08/30 01:31:42;;;;;;;;;;;;;;;;;;1043361;28;4086;-57
2023/08/30 01:32:12;;;;;;;;;;;;;;;;;;1040537;28;3288;-57
2023/08/30 01:32:43;;;;;;;;;;;;;;;;;;1041433;28;4059;-53
2023/08/30 01:33:15;;;;;;;;;;;;;;;;;;1042733;28;3236;-53
2023/08/30 01:33:45;;;;;;;;;;;;;;;;;;1039992;28;3784;-55
2023/08/30 01:34:16;;;;;;;;;;;;;;;;;;1039685;28;3067;-55
2023/08/30 01:34:47;;;;;;;;;;;;;;;;;;1042483;28;3946;-55
2023/08/30 01:35:19;;;;;;;;;;;;;;;;;;1041984;28;3705;-55
2023/08/30 01:35:50;;;;;;;;;;;;;;;;;;1042044;28;4000;-52
2023/08/30 01:36:20;;;;;;;;;;;;;;;;;;1042029;28;3251;-56
2023/08/30 01:36:50;;;;;;;;;;;;;;;;;;1042538;28;3853;-51
2023/08/30 01:37:21;;;;;;;;;;;;;;;;;;1044796;28;3169;-54
2023/08/30 01:37:51;;;;;;;;;;;;;;;;;;1042085;28;4100;-56
2023/08/30 01:38:22;;;;;;;;;;;;;;;;;;1042358;28;3137;-54
2023/08/30 01:38:53;;;;;;;;;;;;;;;;;;1040836;28;4067;-53
2023/08/30 01:39:23;;;;;;;;;;;;;;;;;;1036600;28;3985;-53
2023/08/30 01:39:54;;;;;;;;;;;;;;;;;;1042852;28;1835;-52
2023/08/30 01:40:25;;;;;;;;;;;;;;;;;;1041168;28;4003;-52
2023/08/30 01:40:56;;;;;;;;;;;;;;;;;;1042845;28;3192;-53
2023/08/30 01:41:27;;;;;;;;;;;;;;;;;;1041503;28;4021;-54
2023/08/30 01:42:00;;;;;;;;;;;;;;;;;;1040200;28;3318;-52
2023/08/30 01:42:31;;;;;;;;;;;;;;;;;;1040811;28;3965;-53
2023/08/30 01:43:01;;;;;;;;;;;;;;;;;;1043312;28;3779;-50
2023/08/30 01:43:32;;;;;;;;;;;;;;;;;;1043104;28;3827;-53
2023/08/30 01:44:04;;;;;;;;;;;;;;;;;;1040706;28;3035;-50
2023/08/30 01:44:35;;;;;;;;;;;;;;;;;;1040679;28;4085;-55
2023/08/30 01:45:08;;;;;;;;;;;;;;;;;;1042475;28;3188;-51
2023/08/30 01:45:40;;;;;;;;;;;;;;;;;;1041542;28;4000;-49
2023/08/30 01:46:10;;;;;;;;;;;;;;;;;;1040885;28;3241;-51
2023/08/30 01:46:41;;;;;;;;;;;;;;;;;;1041331;28;4055;-49
2023/08/30 01:47:12;;;;;;;;;;;;;;;;;;1043756;28;1304;-53
2023/08/30 01:47:43;;;;;;;;;;;;;;;;;;1042428;28;3990;-51
2023/08/30 01:48:15;;;;;;;;;;;;;;;;;;1042429;28;2910;-55
2023/08/30 01:48:47;;;;;;;;;;;;;;;;;;1043240;28;3730;-51
2023/08/30 01:49:17;;;;;;;;;;;;;;;;;;1043049;28;3209;-53
2023/08/30 01:49:48;;;;;;;;;;;;;;;;;;1042568;28;3839;-55
2023/08/30 01:50:19;;;;;;;;;;;;;;;;;;1042211;28;3085;-53
2023/08/30 01:50:49;;;;;;;;;;;;;;;;;;1040774;28;3783;-58
2023/08/30 01:51:20;;;;;;;;;;;;;;;;;;1041992;28;3132;-50
2023/08/30 01:51:51;;;;;;;;;;;;;;;;;;1042739;28;4003;-53
2023/08/30 01:52:22;;;;;;;;;;;;;;;;;;1039777;28;3551;-57
2023/08/30 01:52:52;;;;;;;;;;;;;;;;;;1042341;28;3714;-54
2023/08/30 01:53:23;;;;;;;;;;;;;;;;;;1042354;28;4325;-54
2023/08/30 01:53:54;;;;;;;;;;;;;;;;;;1043143;28;1733;-52
2023/08/30 01:54:25;;;;;;;;;;;;;;;;;;1040874;28;4115;-54
2023/08/30 01:54:57;;;;;;;;;;;;;;;;;;1042748;28;1804;-52
2023/08/30 01:55:28;;;;;;;;;;;;;;;;;;1042714;28;4032;-51
2023/08/30 01:55:59;;;;;;;;;;;;;;;;;;1040017;28;3894;-51
2023/08/30 01:56:29;;;;;;;;;;;;;;;;;;1040081;28;4377;-56
2023/08/30 01:56:59;;;;;;;;;;;;;;;;;;1039237;28;3211;-57
2023/08/30 01:57:29;;;;;;;;;;;;;;;;;;1041051;28;3859;-56
2023/08/30 01:58:00;;;;;;;;;;;;;;;;;;1041939;28;3144;-53
2023/08/30 01:58:30;;;;;;;;;;;;;;;;;;1042969;28;4048;-53
2023/08/30 01:59:00;;;;;;;;;;;;;;;;;;1040062;28;3317;-54
2023/08/30 01:59:30;;;;;;;;;;;;;;;;;;1041268;28;4018;-53
2023/08/30 02:00:01;;;;;;;;;;;;;;;;;;1043420;28;3196;-55
2023/08/30 02:00:31;;;;;;;;;;;;;;;;;;1039085;28;4368;-54
2023/08/30 02:01:01;;;;;;;;;;;;;;;;;;1042163;28;3297;-51
2023/08/30 02:01:32;;;;;;;;;;;;;;;;;;1041175;28;3911;-55
2023/08/30 02:02:04;;;;;;;;;;;;;;;;;;1042342;28;3203;-56
2023/08/30 02:02:34;;;;;;;;;;;;;;;;;;1042290;28;4167;-57
2023/08/30 02:03:10;;;;;;;;;;;;;;;;;;1042953;28;2819;-52
2023/08/30 02:03:43;;;;;;;;;;;;;;;;;;1041958;28;4095;-50
2023/08/30 02:04:13;;;;;;;;;;;;;;;;;;1038176;28;3300;-49
2023/08/30 02:04:44;;;;;;;;;;;;;;;;;;1038240;28;3914;-49
2023/08/30 02:05:14;;;;;;;;;;;;;;;;;;1039163;28;1596;-52
2023/08/30 02:05:52;;;;;;;;;;;;;;;;;;1038259;28;3793;-57
2023/08/30 02:06:26;;;;;;;;;;;;;;;;;;1041845;28;3246;-54
2023/08/30 02:07:03;;;;;;;;;;;;;;;;;;1041521;28;3913;-54
2023/08/30 02:07:47;;;;;;;;;;;;;;;;;;1043043;28;3773;-58
2023/08/30 02:08:19;;;;;;;;;;;;;;;;;;1041932;28;3098;-58
2023/08/30 02:08:54;;;;;;;;;;;;;;;;;;1042587;28;4021;-55
2023/08/30 02:09:28;;;;;;;;;;;;;;;;;;1042643;28;3761;-53
2023/08/30 02:09:59;;;;;;;;;;;;;;;;;;1044597;28;1404;-55
2023/08/30 02:10:33;;;;;;;;;;;;;;;;;;1042470;28;4091;-53
2023/08/30 02:11:07;;;;;;;;;;;;;;;;;;1042040;28;3289;-54
2023/08/30 02:11:37;;;;;;;;;;;;;;;;;;1042593;28;3963;-53
2023/08/30 02:12:11;;;;;;;;;;;;;;;;;;1041374;28;3170;-53
2023/08/30 02:12:46;;;;;;;;;;;;;;;;;;1038503;28;4028;-53
2023/08/30 02:13:18;;;;;;;;;;;;;;;;;;1042942;28;3092;-50
2023/08/30 02:13:49;;;;;;;;;;;;;;;;;;1041809;28;3880;-58
2023/08/30 02:14:20;;;;;;;;;;;;;;;;;;1041743;28;3138;-57
2023/08/30 02:14:50;;;;;;;;;;;;;;;;;;1042022;28;4191;-57
2023/08/30 02:15:21;;;;;;;;;;;;;;;;;;1042273;28;3183;-55
2023/08/30 02:15:51;;;;;;;;;;;;;;;;;;1042152;28;4118;-55
2023/08/30 02:16:22;;;;;;;;;;;;;;;;;;1039901;28;4354;-53
2023/08/30 02:16:55;;;;;;;;;;;;;;;;;;1041307;28;4890;-57
2023/08/30 02:17:25;;;;;;;;;;;;;;;;;;1041963;28;3991;-54
2023/08/30 02:17:56;;;;;;;;;;;;;;;;;;1042707;28;2914;-58
2023/08/30 02:18:26;;;;;;;;;;;;;;;;;;1037032;28;4111;-56
2023/08/30 02:18:57;;;;;;;;;;;;;;;;;;1037651;28;3326;-54
2023/08/30 02:19:27;;;;;;;;;;;;;;;;;;1038801;28;3898;-50
2023/08/30 02:19:57;;;;;;;;;;;;;;;;;;1038480;28;1868;-52
2023/08/30 02:20:27;;;;;;;;;;;;;;;;;;1043299;28;3796;-51
2023/08/30 02:20:58;;;;;;;;;;;;;;;;;;1042040;28;3113;-55
2023/08/30 02:21:28;;;;;;;;;;;;;;;;;;1042335;28;3824;-56
2023/08/30 02:21:59;;;;;;;;;;;;;;;;;;1043552;28;3014;-56
2023/08/30 02:22:30;;;;;;;;;;;;;;;;;;1041093;28;3795;-52
2023/08/30 02:23:00;;;;;;;;;;;;;;;;;;1038927;28;1876;-58
2023/08/30 02:23:31;;;;;;;;;;;;;;;;;;1037349;28;4038;-53
2023/08/30 02:24:01;;;;;;;;;;;;;;;;;;1038862;28;2412;-52
2023/08/30 02:24:31;;;;;;;;;;;;;;;;;;1037822;28;4045;-52
2023/08/30 02:25:04;;;;;;;;;;;;;;;;;;1042939;28;2208;-53
2023/08/30 02:25:35;;;;;;;;;;;;;;;;;;1042652;28;3788;-57
2023/08/30 02:26:05;;;;;;;;;;;;;;;;;;1042596;28;3049;-54
2023/08/30 02:26:35;;;;;;;;;;;;;;;;;;1041152;28;3870;-51
2023/08/30 02:27:06;;;;;;;;;;;;;;;;;;1043870;28;1675;-54
2023/08/30 02:27:36;;;;;;;;;;;;;;;;;;1042414;28;4164;-54
2023/08/30 02:28:06;;;;;;;;;;;;;;;;;;1042072;28;3180;-57
2023/08/30 02:28:38;;;;;;;;;;;;;;;;;;1042159;28;4149;-54
2023/08/30 02:29:09;;;;;;;;;;;;;;;;;;1043669;28;1581;-53
2023/08/30 02:29:40;;;;;;;;;;;;;;;;;;1041027;28;3895;-54
2023/08/30 02:30:10;;;;;;;;;;;;;;;;;;1042409;28;3473;-54
2023/08/30 02:30:40;;;;;;;;;;;;;;;;;;1042519;28;3947;-52
2023/08/30 02:31:11;;;;;;;;;;;;;;;;;;1043008;28;2796;-51
2023/08/30 02:31:41;;;;;;;;;;;;;;;;;;1043282;28;4030;-52
2023/08/30 02:32:11;;;;;;;;;;;;;;;;;;1041777;28;3074;-53
2023/08/30 02:32:42;;;;;;;;;;;;;;;;;;1042979;28;4112;-55
2023/08/30 02:33:12;;;;;;;;;;;;;;;;;;1042272;28;3437;-51
2023/08/30 02:33:42;;;;;;;;;;;;;;;;;;1041125;28;3943;-53
2023/08/30 02:34:13;;;;;;;;;;;;;;;;;;1042580;28;3072;-50
2023/08/30 02:34:43;;;;;;;;;;;;;;;;;;1039765;28;3944;-55
2023/08/30 02:35:14;;;;;;;;;;;;;;;;;;1041099;28;3246;-52
2023/08/30 02:35:45;;;;;;;;;;;;;;;;;;1041497;28;4015;-52
2023/08/30 02:36:15;;;;;;;;;;;;;;;;;;1041009;28;3096;-54
2023/08/30 02:36:45;;;;;;;;;;;;;;;;;;1041540;28;3943;-49
2023/08/30 02:37:15;;;;;;;;;;;;;;;;;;1041659;28;3283;-53
2023/08/30 02:37:46;;;;;;;;;;;;;;;;;;1040224;28;3838;-52
2023/08/30 02:38:17;;;;;;;;;;;;;;;;;;1039723;28;3252;-51
2023/08/30 02:38:47;;;;;;;;;;;;;;;;;;1040104;28;4054;-55
2023/08/30 02:39:17;;;;;;;;;;;;;;;;;;1044614;28;3605;-58
2023/08/30 02:39:48;;;;;;;;;;;;;;;;;;1041623;28;4216;-54
2023/08/30 02:40:18;;;;;;;;;;;;;;;;;;1045097;28;3570;-57
2023/08/30 02:40:49;;;;;;;;;;;;;;;;;;1045471;28;3856;-54
2023/08/30 02:41:19;;;;;;;;;;;;;;;;;;1043467;28;1458;-56
2023/08/30 02:41:49;;;;;;;;;;;;;;;;;;1039686;28;4047;-51
2023/08/30 02:42:19;;;;;;;;;;;;;;;;;;1041432;28;3037;-56
2023/08/30 02:42:50;;;;;;;;;;;;;;;;;;1043533;28;3786;-52
2023/08/30 02:43:20;;;;;;;;;;;;;;;;;;1046242;28;3250;-53
2023/08/30 02:43:50;;;;;;;;;;;;;;;;;;1043277;28;3779;-56
2023/08/30 02:44:21;;;;;;;;;;;;;;;;;;1044891;28;3127;-51
2023/08/30 02:44:51;;;;;;;;;;;;;;;;;;1040882;28;4327;-55
2023/08/30 02:45:21;;;;;;;;;;;;;;;;;;1041414;28;3312;-54
2023/08/30 02:45:52;;;;;;;;;;;;;;;;;;1039982;28;4044;-58
2023/08/30 02:46:22;;;;;;;;;;;;;;;;;;1040175;28;3530;-54
2023/08/30 02:46:52;;;;;;;;;;;;;;;;;;1041210;28;3833;-52
2023/08/30 02:47:23;;;;;;;;;;;;;;;;;;1040137;28;4068;-52
2023/08/30 02:47:59;;;;;;;;;;;;;;;;;;1039956;28;3367;-54
2023/08/30 02:48:29;;;;;;;;;;;;;;;;;;1039193;28;3919;-58
2023/08/30 02:49:00;;;;;;;;;;;;;;;;;;1040813;28;3437;-54
2023/08/30 02:49:30;;;;;;;;;;;;;;;;;;1039360;28;4101;-53
2023/08/30 02:50:00;;;;;;;;;;;;;;;;;;1041140;28;3084;-55
2023/08/30 02:50:30;;;;;;;;;;;;;;;;;;1039389;28;3919;-56
2023/08/30 02:51:01;;;;;;;;;;;;;;;;;;1040823;28;3543;-53
2023/08/30 02:51:31;;;;;;;;;;;;;;;;;;1040226;28;4044;-58
2023/08/30 02:52:01;;;;;;;;;;;;;;;;;;1041025;28;3092;-55
2023/08/30 02:52:32;;;;;;;;;;;;;;;;;;1041658;28;4115;-51
2023/08/30 02:53:03;;;;;;;;;;;;;;;;;;1040982;28;3106;-58
2023/08/30 02:53:34;;;;;;;;;;;;;;;;;;1040786;28;4103;-54
2023/08/30 02:54:04;;;;;;;;;;;;;;;;;;1040667;28;3366;-55
2023/08/30 02:54:34;;;;;;;;;;;;;;;;;;1040007;28;3995;-59
2023/08/30 02:55:05;;;;;;;;;;;;;;;;;;1039340;28;3249;-53
2023/08/30 02:55:35;;;;;;;;;;;;;;;;;;1040885;28;3902;-49
2023/08/30 02:56:05;;;;;;;;;;;;;;;;;;1038923;28;3275;-52
2023/08/30 02:56:36;;;;;;;;;;;;;;;;;;1040195;28;4420;-55
2023/08/30 02:57:08;;;;;;;;;;;;;;;;;;1039193;28;3043;-55
2023/08/30 02:57:38;;;;;;;;;;;;;;;;;;1042657;28;4411;-50
2023/08/30 02:58:08;;;;;;;;;;;;;;;;;;1040397;28;3280;-55
2023/08/30 02:58:39;;;;;;;;;;;;;;;;;;1041970;28;3802;-54
2023/08/30 02:59:09;;;;;;;;;;;;;;;;;;1040098;28;3293;-56
2023/08/30 02:59:40;;;;;;;;;;;;;;;;;;1040711;28;4037;-52
2023/08/30 03:00:10;;;;;;;;;;;;;;;;;;1040217;28;3151;-56
2023/08/30 03:00:41;;;;;;;;;;;;;;;;;;1038975;28;4600;-49
2023/08/30 03:01:11;;;;;;;;;;;;;;;;;;1043156;28;3163;-53
2023/08/30 03:01:41;;;;;;;;;;;;;;;;;;1038342;28;4079;-58
2023/08/30 03:02:11;;;;;;;;;;;;;;;;;;1039512;28;3470;-52
2023/08/30 03:02:42;;;;;;;;;;;;;;;;;;1039397;28;4046;-55
2023/08/30 03:03:12;;;;;;;;;;;;;;;;;;1041357;28;3397;-53
2023/08/30 03:03:42;;;;;;;;;;;;;;;;;;1037920;28;3818;-54
2023/08/30 03:04:13;;;;;;;;;;;;;;;;;;1041060;28;3366;-54
2023/08/30 03:04:43;;;;;;;;;;;;;;;;;;1038965;28;4273;-54
2023/08/30 03:05:13;;;;;;;;;;;;;;;;;;1041583;28;3063;-54
2023/08/30 03:05:44;;;;;;;;;;;;;;;;;;1039455;28;3951;-54
2023/08/30 03:06:14;;;;;;;;;;;;;;;;;;1039621;28;3161;-49
2023/08/30 03:06:44;;;;;;;;;;;;;;;;;;1041209;28;3995;-55
2023/08/30 03:07:14;;;;;;;;;;;;;;;;;;1040948;28;3371;-56
2023/08/30 03:07:45;;;;;;;;;;;;;;;;;;1039977;28;3819;-54
2023/08/30 03:08:15;;;;;;;;;;;;;;;;;;1040359;28;3417;-48
2023/08/30 03:08:45;;;;;;;;;;;;;;;;;;1038833;28;3828;-59
2023/08/30 03:09:16;;;;;;;;;;;;;;;;;;1045165;28;3332;-55
2023/08/30 03:09:51;;;;;;;;;;;;;;;;;;1043492;28;3783;-50
2023/08/30 03:10:22;;;;;;;;;;;;;;;;;;1042802;28;3066;-50
2023/08/30 03:10:53;;;;;;;;;;;;;;;;;;1041804;28;3930;-56
2023/08/30 03:11:23;;;;;;;;;;;;;;;;;;1035051;28;3854;-52
2023/08/30 03:11:54;;;;;;;;;;;;;;;;;;1037089;28;3635;-53
2023/08/30 03:12:24;;;;;;;;;;;;;;;;;;1037828;28;3857;-55
2023/08/30 03:12:54;;;;;;;;;;;;;;;;;;1039560;28;1689;-56
2023/08/30 03:13:25;;;;;;;;;;;;;;;;;;1037064;28;3855;-53
2023/08/30 03:13:55;;;;;;;;;;;;;;;;;;1038196;28;3146;-55
2023/08/30 03:14:25;;;;;;;;;;;;;;;;;;1036199;28;4085;-56
2023/08/30 03:14:56;;;;;;;;;;;;;;;;;;1037751;28;3503;-54
2023/08/30 03:15:26;;;;;;;;;;;;;;;;;;1036944;28;4416;-56
2023/08/30 03:15:56;;;;;;;;;;;;;;;;;;1038158;28;3200;-52
2023/08/30 03:16:26;;;;;;;;;;;;;;;;;;1036699;28;3956;-55
2023/08/30 03:16:57;;;;;;;;;;;;;;;;;;1037793;28;2981;-54
2023/08/30 03:17:27;;;;;;;;;;;;;;;;;;1038178;28;4374;-56
2023/08/30 03:17:57;;;;;;;;;;;;;;;;;;1038925;28;2693;-53
2023/08/30 03:18:27;;;;;;;;;;;;;;;;;;1036828;28;3896;-53
2023/08/30 03:18:58;;;;;;;;;;;;;;;;;;1038596;28;1925;-53
2023/08/30 03:19:28;;;;;;;;;;;;;;;;;;1039434;28;4074;-52
2023/08/30 03:19:58;;;;;;;;;;;;;;;;;;1035118;28;3205;-52
2023/08/30 03:20:29;;;;;;;;;;;;;;;;;;1044224;28;4154;-54
2023/08/30 03:21:00;;;;;;;;;;;;;;;;;;1046529;28;1836;-53
2023/08/30 03:21:30;;;;;;;;;;;;;;;;;;1044681;28;3934;-53
2023/08/30 03:22:01;;;;;;;;;;;;;;;;;;1044566;28;3032;-56
2023/08/30 03:22:32;;;;;;;;;;;;;;;;;;1038590;28;4204;-57
2023/08/30 03:23:02;;;;;;;;;;;;;;;;;;1038162;28;3393;-48
2023/08/30 03:23:32;;;;;;;;;;;;;;;;;;1037992;28;4026;-56
2023/08/30 03:24:03;;;;;;;;;;;;;;;;;;1034400;28;3587;-52
2023/08/30 03:24:33;;;;;;;;;;;;;;;;;;1036113;28;3929;-50
2023/08/30 03:25:04;;;;;;;;;;;;;;;;;;1036010;28;3352;-52
2023/08/30 03:25:34;;;;;;;;;;;;;;;;;;1037459;28;4030;-52
2023/08/30 03:26:15;;;;;;;;;;;;;;;;;;1037078;28;3347;-57
2023/08/30 03:26:45;;;;;;;;;;;;;;;;;;1035893;28;4032;-51
2023/08/30 03:27:16;;;;;;;;;;;;;;;;;;1036323;28;3363;-55
2023/08/30 03:27:46;;;;;;;;;;;;;;;;;;1037881;28;4008;-54
2023/08/30 03:28:17;;;;;;;;;;;;;;;;;;1046214;28;3014;-49
2023/08/30 03:28:47;;;;;;;;;;;;;;;;;;1041945;28;3925;-50
2023/08/30 03:29:17;;;;;;;;;;;;;;;;;;1046422;28;1807;-52
2023/08/30 03:29:47;;;;;;;;;;;;;;;;;;1046235;28;3937;-55
2023/08/30 03:30:18;;;;;;;;;;;;;;;;;;1037366;28;3643;-54
2023/08/30 03:30:48;;;;;;;;;;;;;;;;;;1037127;28;4317;-52
2023/08/30 03:31:19;;;;;;;;;;;;;;;;;;1037188;28;3051;-52
2023/08/30 03:31:49;;;;;;;;;;;;;;;;;;1037505;28;3990;-55
2023/08/30 03:32:20;;;;;;;;;;;;;;;;;;1038596;28;3544;-54
2023/08/30 03:32:50;;;;;;;;;;;;;;;;;;1037546;28;3726;-53
2023/08/30 03:33:20;;;;;;;;;;;;;;;;;;1038803;28;2578;-56
2023/08/30 03:33:50;;;;;;;;;;;;;;;;;;1035234;28;4188;-53
2023/08/30 03:34:21;;;;;;;;;;;;;;;;;;1038075;28;3377;-50
2023/08/30 03:34:51;;;;;;;;;;;;;;;;;;1037801;28;3959;-53
2023/08/30 03:35:21;;;;;;;;;;;;;;;;;;1037716;28;3023;-58
2023/08/30 03:35:51;;;;;;;;;;;;;;;;;;1037558;28;3918;-53
2023/08/30 03:36:22;;;;;;;;;;;;;;;;;;1035599;28;3018;-56